Terminal Aerodrome Forecast
Issued by NWS Jackson, KY

Home | Current Version | Previous Version | Text Only | Print | Product List | Glossary On
Versions: 1 2 3 4 5 6 7 8 9 10 11 12 13 14 15 16 17 18 19 20 21 22
827
FTUS43 KJKL 241502 AAB
TAFJKL
TAF AMD
KJKL 241502Z 2415/2512 VRB03KT P6SM BKN015 BKN300
      TEMPO 2415/2417 SCT030 SCT300
     FM241700 VRB03KT P6SM SCT040 SCT300
     FM250100 VRB03KT P6SM SCT200
     FM250800 VRB03KT 4SM BR SCT100=

USA.gov is the U.S. government's official web portal to all federal, state and local government web resources and services.